createdAt,value
2016-07-11T00:00:23.656Z,1002.78
2016-07-11T00:01:23.683Z,1002.78
2016-07-11T00:02:23.712Z,1002.72
2016-07-11T00:03:23.741Z,1002.74
2016-07-11T00:04:23.769Z,1002.74
2016-07-11T00:06:23.823Z,1002.74
2016-07-11T00:07:23.854Z,1002.7
2016-07-11T00:08:23.884Z,1002.71
2016-07-11T00:09:23.909Z,1002.72
2016-07-11T00:10:23.940Z,1002.66
2016-07-11T00:11:23.966Z,1002.71
2016-07-11T00:12:23.996Z,1002.66
2016-07-11T00:13:24.025Z,1002.69
2016-07-11T00:14:24.064Z,1002.69
2016-07-11T00:15:24.082Z,1002.67
2016-07-11T00:16:24.108Z,1002.69
2016-07-11T00:17:24.138Z,1002.64
2016-07-11T00:18:24.165Z,1002.64
2016-07-11T00:19:24.196Z,1002.67
2016-07-11T00:20:24.223Z,1002.67
2016-07-11T00:22:24.279Z,1002.68
2016-07-11T00:23:24.307Z,1002.67
2016-07-11T00:24:24.336Z,1002.61
2016-07-11T00:25:24.366Z,1002.64
2016-07-11T00:26:24.394Z,1002.67
2016-07-11T00:27:24.420Z,1002.63
2016-07-11T00:28:24.451Z,1002.67
2016-07-11T00:29:24.479Z,1002.62
2016-07-11T00:30:24.508Z,1002.63
2016-07-11T00:31:24.536Z,1002.6
2016-07-11T00:32:24.563Z,1002.6
2016-07-11T00:33:24.593Z,1002.59
2016-07-11T00:34:24.622Z,1002.6
2016-07-11T00:35:24.651Z,1002.57
2016-07-11T00:37:24.705Z,1002.56
2016-07-11T00:38:24.735Z,1002.56
2016-07-11T00:39:24.763Z,1002.54
2016-07-11T00:40:24.793Z,1002.5
2016-07-11T00:41:24.819Z,1002.54
2016-07-11T00:42:24.849Z,1002.53
2016-07-11T00:43:24.877Z,1002.48
2016-07-11T00:44:24.905Z,1002.51
2016-07-11T00:45:24.933Z,1002.5
2016-07-11T00:46:24.959Z,1002.49
2016-07-11T00:47:24.988Z,1002.46
2016-07-11T00:48:25.016Z,1002.47
2016-07-11T00:49:25.047Z,1002.48
2016-07-11T00:50:25.072Z,1002.5
2016-07-11T00:51:25.101Z,1002.44
2016-07-11T00:52:25.132Z,1002.47
2016-07-11T00:53:25.157Z,1002.47
2016-07-11T00:54:25.188Z,1002.45
2016-07-11T00:55:25.227Z,1002.43
2016-07-11T00:56:25.241Z,1002.42
2016-07-11T00:57:25.273Z,1002.38
2016-07-11T00:58:25.299Z,1002.43
2016-07-11T00:59:25.330Z,1002.42
2016-07-11T01:00:25.357Z,1002.35
2016-07-11T01:01:25.385Z,1002.39
2016-07-11T01:02:25.412Z,1002.36
2016-07-11T01:03:25.440Z,1002.38
2016-07-11T01:04:25.469Z,1002.36
2016-07-11T01:05:25.496Z,1002.34
2016-07-11T01:06:25.530Z,1002.33
2016-07-11T01:07:25.552Z,1002.37
2016-07-11T01:09:25.611Z,1002.35
2016-07-11T01:10:25.638Z,1002.36
2016-07-11T01:11:25.665Z,1002.37
2016-07-11T01:12:25.693Z,1002.32
2016-07-11T01:13:25.724Z,1002.32
2016-07-11T01:14:25.750Z,1002.28
2016-07-11T01:15:25.785Z,1002.28
2016-07-11T01:16:25.808Z,1002.26
2016-07-11T01:17:25.834Z,1002.25
2016-07-11T01:18:25.862Z,1002.25
2016-07-11T01:19:25.893Z,1002.26
2016-07-11T01:20:25.919Z,1002.24
2016-07-11T01:21:25.948Z,1002.26
2016-07-11T01:22:25.975Z,1002.24
2016-07-11T01:23:26.006Z,1002.22
2016-07-11T01:25:26.060Z,1002.2
2016-07-11T01:26:26.088Z,1002.24
2016-07-11T01:27:26.118Z,1002.22
2016-07-11T01:28:26.147Z,1002.22
2016-07-11T01:29:26.175Z,1002.2
2016-07-11T01:30:26.200Z,1002.21
2016-07-11T01:31:26.231Z,1002.17
2016-07-11T01:32:26.259Z,1002.18
2016-07-11T01:33:26.287Z,1002.18
2016-07-11T01:34:26.314Z,1002.16
2016-07-11T01:35:26.344Z,1002.18
2016-07-11T01:36:26.373Z,1002.16
2016-07-11T01:37:26.398Z,1002.19
2016-07-11T01:38:26.428Z,1002.14
2016-07-11T01:39:26.454Z,1002.13
2016-07-11T01:41:26.510Z,1002.07
2016-07-11T01:42:26.541Z,1002.11
2016-07-11T01:43:26.567Z,1002.1
2016-07-11T01:44:26.596Z,1002.13
2016-07-11T01:45:26.625Z,1002.14
2016-07-11T01:46:26.653Z,1002.11
2016-07-11T01:47:26.679Z,1002.11
2016-07-11T01:48:26.707Z,1002.07
2016-07-11T01:49:26.738Z,1002.12
2016-07-11T01:50:26.763Z,1002.08
2016-07-11T01:51:26.791Z,1002.08
2016-07-11T01:52:26.821Z,1002.06
2016-07-11T01:53:26.849Z,1002.07
2016-07-11T01:54:26.878Z,1002.01
2016-07-11T01:55:26.910Z,1002.01
2016-07-11T01:57:26.962Z,1002.01
2016-07-11T01:58:26.988Z,1002.02
2016-07-11T01:59:27.017Z,1002.02
2016-07-11T02:00:27.046Z,1001.98
2016-07-11T02:01:27.072Z,1001.98
2016-07-11T02:02:27.102Z,1001.98
2016-07-11T02:03:27.128Z,1001.98
2016-07-11T02:04:27.156Z,1001.96
2016-07-11T02:05:27.184Z,1001.98
2016-07-11T02:06:27.213Z,1001.95
2016-07-11T02:07:27.242Z,1001.95
2016-07-11T02:08:27.268Z,1001.96
2016-07-11T02:09:27.296Z,1001.95
2016-07-11T02:10:27.327Z,1001.93
2016-07-11T02:12:27.381Z,1001.91
2016-07-11T02:13:27.409Z,1001.88
2016-07-11T02:14:27.439Z,1001.86
2016-07-11T02:15:27.466Z,1001.88
2016-07-11T02:16:27.495Z,1001.86
2016-07-11T02:17:27.520Z,1001.83
2016-07-11T02:18:27.551Z,1001.86
2016-07-11T02:19:27.577Z,1001.89
2016-07-11T02:20:27.603Z,1001.92
2016-07-11T02:21:27.634Z,1001.87
2016-07-11T02:22:27.663Z,1001.9
2016-07-11T02:23:27.691Z,1001.87
2016-07-11T02:24:27.728Z,1001.89
2016-07-11T02:25:27.746Z,1001.87
2016-07-11T02:26:27.775Z,1001.9
2016-07-11T02:27:27.800Z,1001.88
2016-07-11T02:28:27.830Z,1001.88
2016-07-11T02:29:27.855Z,1001.86
2016-07-11T02:30:27.886Z,1001.88
2016-07-11T02:31:27.912Z,1001.84
2016-07-11T02:32:27.940Z,1001.88
2016-07-11T02:33:27.967Z,1001.87
2016-07-11T02:34:27.998Z,1001.86
2016-07-11T02:35:28.025Z,1001.84
2016-07-11T02:36:28.052Z,1001.85
2016-07-11T02:37:28.083Z,1001.85
2016-07-11T02:38:28.107Z,1001.84
2016-07-11T02:39:28.137Z,1001.84
2016-07-11T02:40:28.162Z,1001.85
2016-07-11T02:41:28.190Z,1001.84
2016-07-11T02:42:28.221Z,1001.81
2016-07-11T02:44:28.275Z,1001.82
2016-07-11T02:45:28.303Z,1001.81
2016-07-11T02:46:28.329Z,1001.83
2016-07-11T02:47:28.358Z,1001.82
2016-07-11T02:48:28.386Z,1001.84
2016-07-11T02:49:28.416Z,1001.86
2016-07-11T02:50:28.443Z,1001.79
2016-07-11T02:51:28.472Z,1001.82
2016-07-11T02:52:28.499Z,1001.82
2016-07-11T02:53:28.525Z,1001.81
2016-07-11T02:54:28.553Z,1001.8
2016-07-11T02:55:28.581Z,1001.81
2016-07-11T02:56:28.609Z,1001.78
2016-07-11T02:57:28.639Z,1001.78
2016-07-11T02:58:28.667Z,1001.75
2016-07-11T03:00:28.723Z,1001.78
2016-07-11T03:01:28.750Z,1001.76
2016-07-11T03:02:28.779Z,1001.78
2016-07-11T03:03:28.804Z,1001.8
2016-07-11T03:04:28.835Z,1001.78
2016-07-11T03:05:28.861Z,1001.74
2016-07-11T03:06:28.887Z,1001.81
2016-07-11T03:07:28.916Z,1001.8
2016-07-11T03:08:28.944Z,1001.82
2016-07-11T03:09:28.973Z,1001.79
2016-07-11T03:10:29.002Z,1001.8
2016-07-11T03:11:29.026Z,1001.8
2016-07-11T03:12:29.054Z,1001.87
2016-07-11T03:13:29.082Z,1001.81
2016-07-11T03:14:29.112Z,1001.79
2016-07-11T03:16:29.165Z,1001.77
2016-07-11T03:17:29.193Z,1001.77
2016-07-11T03:18:29.223Z,1001.79
2016-07-11T03:19:29.251Z,1001.79
2016-07-11T03:20:29.277Z,1001.79
2016-07-11T03:21:29.306Z,1001.81
2016-07-11T03:22:29.333Z,1001.84
2016-07-11T03:23:29.362Z,1001.83
2016-07-11T03:24:29.387Z,1001.87
2016-07-11T03:25:29.416Z,1001.83
2016-07-11T03:26:29.444Z,1001.86
2016-07-11T03:27:29.473Z,1001.85
2016-07-11T03:28:29.499Z,1001.88
2016-07-11T03:29:29.529Z,1001.86
2016-07-11T03:30:29.556Z,1001.86
2016-07-11T03:32:29.612Z,1001.94
2016-07-11T03:33:29.639Z,1001.95
2016-07-11T03:34:29.666Z,1001.94
2016-07-11T03:35:29.697Z,1001.99
2016-07-11T03:36:29.721Z,1002.01
2016-07-11T03:37:29.751Z,1002.03
2016-07-11T03:38:29.779Z,1002.05
2016-07-11T03:39:29.805Z,1002.07
2016-07-11T03:40:29.835Z,1002.09
2016-07-11T03:41:29.863Z,1002.15
2016-07-11T03:42:29.889Z,1002.08
2016-07-11T03:43:29.933Z,1002.13
2016-07-11T03:44:29.945Z,1002.09
2016-07-11T03:45:29.975Z,1002.11
2016-07-11T03:47:30.032Z,1002.14
2016-07-11T03:48:30.059Z,1002.12
2016-07-11T03:49:30.088Z,1002.16
2016-07-11T03:50:30.114Z,1002.1
2016-07-11T03:51:30.141Z,1002.11
2016-07-11T03:52:30.174Z,1002.11
2016-07-11T03:53:30.200Z,1002.14
2016-07-11T03:54:30.228Z,1002.14
2016-07-11T03:55:30.255Z,1002.1
2016-07-11T03:56:30.282Z,1002.1
2016-07-11T03:57:30.309Z,1002.09
2016-07-11T03:58:30.337Z,1002.08
2016-07-11T03:59:30.366Z,1002.06
2016-07-11T04:00:30.392Z,1002.04
2016-07-11T04:01:30.421Z,1002.06
2016-07-11T04:02:30.448Z,1002.03
2016-07-11T04:03:30.478Z,1002.06
2016-07-11T04:04:30.507Z,1002.06
2016-07-11T04:05:30.532Z,1002.08
2016-07-11T04:06:30.559Z,1002.1
2016-07-11T04:07:30.588Z,1002.16
2016-07-11T04:08:30.618Z,1002.11
2016-07-11T04:09:30.647Z,1002.12
2016-07-11T04:10:30.674Z,1002.05
2016-07-11T04:11:30.700Z,1002.06
2016-07-11T04:12:30.732Z,1002.06
2016-07-11T04:13:30.757Z,1001.98
2016-07-11T04:14:30.785Z,1001.96
2016-07-11T04:15:30.814Z,1001.99
2016-07-11T04:16:30.843Z,1002.01
2016-07-11T04:17:30.869Z,1001.99
2016-07-11T04:19:30.928Z,1002.02
2016-07-11T04:20:30.957Z,1002.01
2016-07-11T04:21:30.983Z,1001.93
2016-07-11T04:22:31.011Z,1001.95
2016-07-11T04:23:31.041Z,1001.99
2016-07-11T04:24:31.067Z,1002.02
2016-07-11T04:25:31.095Z,1002.04
2016-07-11T04:26:31.123Z,1002.12
2016-07-11T04:27:31.152Z,1002.14
2016-07-11T04:28:31.181Z,1002.18
2016-07-11T04:29:31.211Z,1002.23
2016-07-11T04:30:31.239Z,1002.23
2016-07-11T04:31:31.267Z,1002.27
2016-07-11T04:32:31.294Z,1002.29
2016-07-11T04:33:31.325Z,1002.32
2016-07-11T04:35:31.377Z,1002.32
2016-07-11T04:36:31.406Z,1002.33
2016-07-11T04:37:31.435Z,1002.32
2016-07-11T04:38:31.463Z,1002.31
2016-07-11T04:39:31.490Z,1002.34
2016-07-11T04:40:31.521Z,1002.28
2016-07-11T04:41:31.548Z,1002.26
2016-07-11T04:42:31.576Z,1002.3
2016-07-11T04:43:31.607Z,1002.36
2016-07-11T04:44:31.636Z,1002.4
2016-07-11T04:45:31.664Z,1002.46
2016-07-11T04:46:31.691Z,1002.43
2016-07-11T04:47:31.722Z,1002.41
2016-07-11T04:48:31.749Z,1002.48
2016-07-11T04:49:31.778Z,1002.53
2016-07-11T04:51:31.838Z,1002.65
2016-07-11T04:52:31.866Z,1002.71
2016-07-11T04:53:31.898Z,1002.64
2016-07-11T04:54:31.926Z,1002.64
2016-07-11T04:55:31.957Z,1002.67
2016-07-11T04:56:31.985Z,1002.73
2016-07-11T04:57:32.017Z,1002.64
2016-07-11T04:58:32.047Z,1002.67
2016-07-11T04:59:32.076Z,1002.64
2016-07-11T05:00:32.106Z,1002.62
2016-07-11T05:01:32.135Z,1002.63
2016-07-11T05:02:32.167Z,1002.59
2016-07-11T05:03:32.198Z,1002.61
2016-07-11T05:04:32.228Z,1002.61
2016-07-11T05:05:32.257Z,1002.64
2016-07-11T05:07:32.317Z,1002.59
2016-07-11T05:08:32.350Z,1002.55
2016-07-11T05:09:32.378Z,1002.57
2016-07-11T05:10:32.407Z,1002.52
2016-07-11T05:11:32.441Z,1002.58
2016-07-11T05:12:32.471Z,1002.51
2016-07-11T05:13:32.498Z,1002.52
2016-07-11T05:14:32.531Z,1002.55
2016-07-11T05:15:32.562Z,1002.54
2016-07-11T05:16:32.589Z,1002.6
2016-07-11T05:17:32.619Z,1002.61
2016-07-11T05:18:32.651Z,1002.72
2016-07-11T05:19:32.682Z,1002.75
2016-07-11T05:20:32.712Z,1002.78
2016-07-11T05:22:32.773Z,1002.87
2016-07-11T05:23:32.805Z,1002.95
2016-07-11T05:24:32.835Z,1002.95
2016-07-11T05:25:32.864Z,1002.86
2016-07-11T05:26:32.895Z,1002.92
2016-07-11T05:27:32.927Z,1002.87
2016-07-11T05:28:32.959Z,1002.81
2016-07-11T05:29:32.990Z,1002.83
2016-07-11T05:30:33.020Z,1002.78
2016-07-11T05:31:33.063Z,1002.82
2016-07-11T05:32:33.081Z,1003.01
2016-07-11T05:33:33.112Z,1002.92
2016-07-11T05:34:33.146Z,1002.81
2016-07-11T05:35:33.175Z,1002.86
2016-07-11T05:36:33.209Z,1002.98
2016-07-11T05:37:33.239Z,1003.06
2016-07-11T05:38:33.270Z,1003.04
2016-07-11T05:39:33.305Z,1003.08
2016-07-11T05:40:33.336Z,1003.1
2016-07-11T05:41:33.365Z,1003.13
2016-07-11T05:42:33.400Z,1003.18
2016-07-11T05:43:33.433Z,1003.21
2016-07-11T05:44:33.462Z,1003.18
2016-07-11T05:45:33.495Z,1003.23
2016-07-11T05:46:33.528Z,1003.17
2016-07-11T05:47:33.561Z,1002.96
2016-07-11T05:48:33.593Z,1002.87
2016-07-11T05:49:33.628Z,1002.91
2016-07-11T05:50:33.660Z,1003.3
2016-07-11T05:51:33.692Z,1003.14
2016-07-11T05:52:33.726Z,1003.48
2016-07-11T05:54:33.793Z,1003.43
2016-07-11T05:55:33.826Z,1003.44
2016-07-11T05:56:33.858Z,1003.46
2016-07-11T05:57:33.891Z,1003.48
2016-07-11T05:58:33.925Z,1003.43
2016-07-11T05:59:33.962Z,1003.41
2016-07-11T06:00:33.994Z,1003.49
2016-07-11T06:01:34.028Z,1003.46
2016-07-11T06:02:34.062Z,1003.49
2016-07-11T06:03:34.096Z,1003.46
2016-07-11T06:04:34.129Z,1003.42
2016-07-11T06:05:34.176Z,1003.46
2016-07-11T06:06:34.201Z,1003.42
2016-07-11T06:07:34.237Z,1003.43
2016-07-11T06:08:34.269Z,1003.29
2016-07-11T06:10:34.340Z,1003.4
2016-07-11T06:11:34.378Z,1003.4
2016-07-11T06:12:34.413Z,1003.39
2016-07-11T06:13:34.449Z,1003.37
2016-07-11T06:14:34.483Z,1003.44
2016-07-11T06:15:34.519Z,1003.41
2016-07-11T06:16:34.557Z,1003.36
2016-07-11T06:17:34.591Z,1003.35
2016-07-11T06:18:34.629Z,1003.37
2016-07-11T06:19:34.665Z,1003.39
2016-07-11T06:20:34.700Z,1003.39
2016-07-11T06:21:34.737Z,1003.55
2016-07-11T06:22:34.774Z,1003.39
2016-07-11T06:23:34.807Z,1003.44
2016-07-11T06:24:34.844Z,1003.37
2016-07-11T06:26:34.919Z,1003.47
2016-07-11T06:27:34.954Z,1003.47
2016-07-11T06:28:34.992Z,1003.42
2016-07-11T06:29:35.026Z,1003.43
2016-07-11T06:30:35.062Z,1003.46
2016-07-11T06:31:35.100Z,1003.49
2016-07-11T06:32:35.138Z,1003.12
2016-07-11T06:33:35.177Z,1003.25
2016-07-11T06:34:35.212Z,1003.21
2016-07-11T06:35:35.247Z,1003.36
2016-07-11T06:36:35.284Z,1003.17
2016-07-11T06:37:35.319Z,1003.83
2016-07-11T06:38:35.358Z,1003.65
2016-07-11T06:39:35.396Z,1003.63
2016-07-11T06:40:35.432Z,1003.71
2016-07-11T06:42:35.505Z,1003.69
2016-07-11T06:43:35.539Z,1003.65
2016-07-11T06:44:35.578Z,1003.72
2016-07-11T06:45:35.612Z,1003.66
2016-07-11T06:46:35.649Z,1003.72
2016-07-11T06:47:35.685Z,1003.75
2016-07-11T06:48:35.724Z,1003.47
2016-07-11T06:49:35.760Z,1003.35
2016-07-11T06:50:35.797Z,1003.75
2016-07-11T06:51:35.832Z,1003.6
2016-07-11T06:52:35.868Z,1003.6
2016-07-11T06:53:35.905Z,1003.59
2016-07-11T06:54:35.944Z,1003.7
2016-07-11T06:55:35.981Z,1003.69
2016-07-11T06:57:36.055Z,1003.65
2016-07-11T06:58:36.089Z,1003.63
2016-07-11T06:59:36.127Z,1003.64
2016-07-11T07:00:36.164Z,1003.68
2016-07-11T07:01:36.207Z,1003.64
2016-07-11T07:02:36.237Z,1003.7
2016-07-11T07:03:36.276Z,1003.59
2016-07-11T07:04:36.314Z,1003.54
2016-07-11T07:05:36.349Z,1003.52
2016-07-11T07:06:36.386Z,1003.54
2016-07-11T07:07:36.426Z,1003.37
2016-07-11T07:08:36.461Z,1003.5
2016-07-11T07:09:36.497Z,1003.49
2016-07-11T07:10:36.532Z,1003.47
2016-07-11T07:11:36.571Z,1003.61
2016-07-11T07:12:36.608Z,1003.62
2016-07-11T07:13:36.644Z,1003.78
2016-07-11T07:14:36.678Z,1003.64
2016-07-11T07:15:36.715Z,1003.72
2016-07-11T07:16:36.751Z,1003.81
2016-07-11T07:17:36.789Z,1003.74
2016-07-11T07:18:36.825Z,1003.92
2016-07-11T07:19:36.860Z,1003.8
2016-07-11T07:20:36.895Z,1003.77
2016-07-11T07:21:36.931Z,1003.93
2016-07-11T07:22:36.970Z,1004.02
2016-07-11T07:23:37.004Z,1003.95
2016-07-11T07:24:37.039Z,1003.96
2016-07-11T07:25:37.078Z,1003.96
2016-07-11T07:26:37.113Z,1004
2016-07-11T07:27:37.151Z,1003.98
2016-07-11T07:29:37.219Z,1003.99
2016-07-11T07:30:37.255Z,1003.9
2016-07-11T07:31:37.290Z,1003.87
2016-07-11T07:32:37.325Z,1003.88
2016-07-11T07:33:37.362Z,1003.82
2016-07-11T07:34:37.400Z,1003.85
2016-07-11T07:35:37.434Z,1003.85
2016-07-11T07:36:37.471Z,1003.91
2016-07-11T07:37:37.507Z,1003.91
2016-07-11T07:38:37.540Z,1003.81
2016-07-11T07:39:37.579Z,1003.82
2016-07-11T07:40:37.613Z,1003.73
2016-07-11T07:41:37.649Z,1003.75
2016-07-11T07:42:37.684Z,1003.64
2016-07-11T07:43:37.718Z,1003.55
2016-07-11T07:45:37.788Z,1003.33
2016-07-11T07:46:37.825Z,1003.38
2016-07-11T07:47:37.858Z,1003.43
2016-07-11T07:48:37.895Z,1003.46
2016-07-11T07:49:37.928Z,1003.42
2016-07-11T07:50:37.965Z,1003.43
2016-07-11T07:51:38.000Z,1003.41
2016-07-11T07:52:38.035Z,1003.39
2016-07-11T07:53:38.069Z,1003.41
2016-07-11T07:54:38.102Z,1003.33
2016-07-11T07:55:38.139Z,1003.41
2016-07-11T07:56:38.174Z,1003.36
2016-07-11T07:57:38.204Z,1003.31
2016-07-11T07:58:38.239Z,1003.37
2016-07-11T07:59:38.273Z,1003.4
2016-07-11T08:01:38.341Z,1003.42
2016-07-11T08:02:38.377Z,1003.4
2016-07-11T08:03:38.412Z,1003.46
2016-07-11T08:04:38.444Z,1003.43
2016-07-11T08:05:38.477Z,1003.41
2016-07-11T08:06:38.514Z,1003.4
2016-07-11T08:07:38.545Z,1003.44
2016-07-11T08:08:38.581Z,1003.46
2016-07-11T08:09:38.613Z,1003.44
2016-07-11T08:10:38.649Z,1003.45
2016-07-11T08:11:38.680Z,1003.5
2016-07-11T08:12:38.716Z,1003.51
2016-07-11T08:13:38.747Z,1003.46
2016-07-11T08:14:38.783Z,1003.56
2016-07-11T08:15:38.815Z,1003.6
2016-07-11T08:17:38.885Z,1003.47
2016-07-11T08:18:38.916Z,1003.54
2016-07-11T08:19:38.952Z,1003.54
2016-07-11T08:20:38.986Z,1003.55
2016-07-11T08:21:39.019Z,1003.52
2016-07-11T08:22:39.052Z,1003.54
2016-07-11T08:23:39.084Z,1003.53
2016-07-11T08:24:39.120Z,1003.56
2016-07-11T08:25:39.153Z,1003.59
2016-07-11T08:26:39.185Z,1003.55
2016-07-11T08:27:39.221Z,1003.54
2016-07-11T08:28:39.254Z,1003.54
2016-07-11T08:29:39.287Z,1003.53
2016-07-11T08:30:39.322Z,1003.56
2016-07-11T08:32:39.389Z,1003.52
2016-07-11T08:33:39.426Z,1003.53
2016-07-11T08:34:39.460Z,1003.59
2016-07-11T08:35:39.490Z,1003.54
2016-07-11T08:36:39.524Z,1003.5
2016-07-11T08:37:39.561Z,1003.54
2016-07-11T08:38:39.593Z,1003.62
2016-07-11T08:39:39.625Z,1003.7
2016-07-11T08:40:39.657Z,1003.67
2016-07-11T08:41:39.691Z,1003.65
2016-07-11T08:42:39.727Z,1003.64
2016-07-11T08:43:39.761Z,1003.61
2016-07-11T08:44:39.793Z,1003.59
2016-07-11T08:45:39.832Z,1003.6
2016-07-11T08:46:39.862Z,1003.64
2016-07-11T08:47:39.896Z,1003.61
2016-07-11T08:48:39.928Z,1003.7
2016-07-11T08:49:39.962Z,1003.66
2016-07-11T08:50:39.995Z,1003.77
2016-07-11T08:51:40.027Z,1003.69
2016-07-11T08:52:40.061Z,1003.75
2016-07-11T08:53:40.095Z,1003.71
2016-07-11T08:54:40.126Z,1003.86
2016-07-11T08:55:40.159Z,1003.84
2016-07-11T08:56:40.195Z,1003.83
2016-07-11T08:57:40.226Z,1003.8
2016-07-11T08:58:40.259Z,1003.82
2016-07-11T08:59:40.294Z,1003.71
2016-07-11T09:00:40.328Z,1003.71
2016-07-11T09:01:40.360Z,1003.78
2016-07-11T09:02:40.403Z,1003.73
2016-07-11T09:04:40.461Z,1003.76
2016-07-11T09:05:40.490Z,1003.73
2016-07-11T09:06:40.523Z,1003.74
2016-07-11T09:07:40.557Z,1003.69
2016-07-11T09:08:40.590Z,1003.74
2016-07-11T09:09:40.628Z,1003.71
2016-07-11T09:10:40.665Z,1003.75
2016-07-11T09:11:40.702Z,1003.72
2016-07-11T09:12:40.729Z,1003.71
2016-07-11T09:13:40.763Z,1003.73
2016-07-11T09:14:40.797Z,1003.74
2016-07-11T09:15:40.831Z,1003.78
2016-07-11T09:16:40.866Z,1003.77
2016-07-11T09:17:40.898Z,1003.78
2016-07-11T09:18:40.934Z,1003.74
2016-07-11T09:20:41.000Z,1003.74
2016-07-11T09:21:41.033Z,1003.73
2016-07-11T09:22:41.073Z,1003.72
2016-07-11T09:23:41.101Z,1003.79
2016-07-11T09:24:41.135Z,1003.81
2016-07-11T09:25:41.169Z,1003.75
2016-07-11T09:26:41.205Z,1003.78
2016-07-11T09:27:41.238Z,1003.8
2016-07-11T09:28:41.271Z,1003.75
2016-07-11T09:29:41.306Z,1003.73
2016-07-11T09:30:41.341Z,1003.8
2016-07-11T09:31:41.384Z,1003.79
2016-07-11T09:32:41.409Z,1003.81
2016-07-11T09:33:41.443Z,1003.83
2016-07-11T09:34:41.479Z,1003.93
2016-07-11T09:36:41.549Z,1003.91
2016-07-11T09:37:41.583Z,1003.88
2016-07-11T09:38:41.619Z,1003.88
2016-07-11T09:39:41.652Z,1003.91
2016-07-11T09:40:41.686Z,1003.92
2016-07-11T09:41:41.722Z,1003.95
2016-07-11T09:42:41.755Z,1003.92
2016-07-11T09:43:41.795Z,1003.96
2016-07-11T09:44:41.825Z,1003.89
2016-07-11T09:45:41.859Z,1003.89
2016-07-11T09:46:41.892Z,1003.97
2016-07-11T09:47:41.926Z,1003.88
2016-07-11T09:48:41.961Z,1003.93
2016-07-11T09:49:41.998Z,1003.88
2016-07-11T09:50:42.029Z,1003.89
2016-07-11T09:52:42.099Z,1003.94
2016-07-11T09:53:42.132Z,1003.91
2016-07-11T09:54:42.168Z,1003.93
2016-07-11T09:55:42.201Z,1003.91
2016-07-11T09:56:42.237Z,1003.93
2016-07-11T09:57:42.268Z,1003.87
2016-07-11T09:58:42.313Z,1003.92
2016-07-11T09:59:42.338Z,1003.93
2016-07-11T10:00:42.374Z,1003.93
2016-07-11T10:01:42.405Z,1003.92
2016-07-11T10:02:42.441Z,1003.96
2016-07-11T10:03:42.473Z,1004.02
2016-07-11T10:04:42.510Z,1003.98
2016-07-11T10:05:42.542Z,1004.03
2016-07-11T10:07:42.612Z,1003.98
2016-07-11T10:08:42.645Z,1003.97
2016-07-11T10:09:42.680Z,1003.9
2016-07-11T10:10:42.713Z,1003.95
2016-07-11T10:11:42.745Z,1003.93
2016-07-11T10:12:42.781Z,1003.88
2016-07-11T10:13:42.812Z,1003.83
2016-07-11T10:14:42.852Z,1003.84
2016-07-11T10:15:42.882Z,1003.82
2016-07-11T10:16:42.916Z,1003.85
2016-07-11T10:17:42.948Z,1003.85
2016-07-11T10:18:42.983Z,1003.85
2016-07-11T10:19:43.016Z,1003.9
2016-07-11T10:20:43.051Z,1003.87
2016-07-11T10:21:43.088Z,1003.94
2016-07-11T10:22:43.117Z,1003.99
2016-07-11T10:23:43.150Z,1003.96
2016-07-11T10:24:43.184Z,1004.04
2016-07-11T10:25:43.218Z,1003.95
2016-07-11T10:26:43.251Z,1004.03
2016-07-11T10:27:43.285Z,1004
2016-07-11T10:28:43.322Z,1003.98
2016-07-11T10:29:43.356Z,1003.98
2016-07-11T10:30:43.389Z,1003.96
2016-07-11T10:31:43.421Z,1003.9
2016-07-11T10:32:43.457Z,1003.99
2016-07-11T10:33:43.489Z,1003.99
2016-07-11T10:34:43.524Z,1003.99
2016-07-11T10:35:43.559Z,1003.91
2016-07-11T10:36:43.591Z,1003.9
2016-07-11T10:37:43.623Z,1003.89
2016-07-11T10:39:43.692Z,1003.81
2016-07-11T10:40:43.729Z,1003.75
2016-07-11T10:41:43.765Z,1003.88
2016-07-11T10:42:43.792Z,1003.84
2016-07-11T10:43:43.827Z,1003.86
2016-07-11T10:44:43.863Z,1003.89
2016-07-11T10:45:43.902Z,1003.91
2016-07-11T10:46:43.927Z,1003.96
2016-07-11T10:47:43.961Z,1003.94
2016-07-11T10:48:43.997Z,1004.03
2016-07-11T10:49:44.030Z,1003.99
2016-07-11T10:50:44.065Z,1004.01
2016-07-11T10:51:44.096Z,1004.05
2016-07-11T10:52:44.128Z,1004.03
2016-07-11T10:53:44.163Z,1003.99
2016-07-11T10:55:44.231Z,1003.96
2016-07-11T10:56:44.265Z,1003.94
2016-07-11T10:57:44.298Z,1003.94
2016-07-11T10:58:44.331Z,1003.87
2016-07-11T10:59:44.370Z,1003.91
2016-07-11T11:00:44.402Z,1003.96
2016-07-11T11:01:44.436Z,1003.95
2016-07-11T11:02:44.467Z,1003.92
2016-07-11T11:03:44.500Z,1003.86
2016-07-11T11:04:44.533Z,1003.93
2016-07-11T11:05:44.566Z,1003.91
2016-07-11T11:06:44.603Z,1003.88
2016-07-11T11:07:44.635Z,1003.91
2016-07-11T11:08:44.665Z,1003.91
2016-07-11T11:09:44.701Z,1003.95
2016-07-11T11:11:44.767Z,1003.93
2016-07-11T11:12:44.800Z,1003.93
2016-07-11T11:13:44.834Z,1003.87
2016-07-11T11:14:44.864Z,1003.89
2016-07-11T11:15:44.898Z,1003.9
2016-07-11T11:16:44.932Z,1003.89
2016-07-11T11:17:44.966Z,1003.89
2016-07-11T11:18:45.000Z,1003.88
2016-07-11T11:19:45.030Z,1003.9
2016-07-11T11:20:45.067Z,1003.91
2016-07-11T11:21:45.098Z,1003.89
2016-07-11T11:22:45.130Z,1003.89
2016-07-11T11:23:45.163Z,1003.97
2016-07-11T11:24:45.196Z,1003.92
2016-07-11T11:25:45.229Z,1003.98
2016-07-11T11:27:45.299Z,1003.94
2016-07-11T11:28:45.330Z,1003.89
2016-07-11T11:29:45.362Z,1003.94
2016-07-11T11:30:45.395Z,1003.93
2016-07-11T11:31:45.428Z,1003.98
2016-07-11T11:32:45.462Z,1003.95
2016-07-11T11:33:45.494Z,1003.85
2016-07-11T11:34:45.529Z,1003.88
2016-07-11T11:35:45.560Z,1003.93
2016-07-11T11:36:45.594Z,1003.93
2016-07-11T11:37:45.626Z,1004.04
2016-07-11T11:38:45.660Z,1003.92
2016-07-11T11:39:45.694Z,1003.93
2016-07-11T11:40:45.727Z,1003.83
2016-07-11T11:42:45.793Z,1003.9
2016-07-11T11:43:45.827Z,1003.9
2016-07-11T11:44:45.860Z,1003.81
2016-07-11T11:45:45.892Z,1003.78
2016-07-11T11:46:45.924Z,1003.8
2016-07-11T11:47:45.958Z,1003.76
2016-07-11T11:48:45.989Z,1003.87
2016-07-11T11:49:46.025Z,1003.82
2016-07-11T11:50:46.058Z,1003.87
2016-07-11T11:51:46.091Z,1003.84
2016-07-11T11:52:46.123Z,1003.84
2016-07-11T11:53:46.156Z,1003.92
2016-07-11T11:54:46.185Z,1003.85
2016-07-11T11:55:46.221Z,1003.84
2016-07-11T11:56:46.252Z,1003.8
2016-07-11T11:57:46.287Z,1003.76
2016-07-11T11:58:46.318Z,1003.73
2016-07-11T11:59:46.353Z,1003.77
2016-07-11T12:00:46.385Z,1003.82
2016-07-11T12:01:46.415Z,1003.82
2016-07-11T12:02:46.449Z,1003.81
2016-07-11T12:03:46.480Z,1003.77
2016-07-11T12:04:46.513Z,1003.86
2016-07-11T12:05:46.549Z,1003.85
2016-07-11T12:06:46.579Z,1003.78
2016-07-11T12:07:46.612Z,1003.83
2016-07-11T12:08:46.646Z,1003.83
2016-07-11T12:09:46.678Z,1003.83
2016-07-11T12:10:46.710Z,1003.72
2016-07-11T12:11:46.745Z,1003.8
2016-07-11T12:12:46.775Z,1003.8
2016-07-11T12:14:46.840Z,1003.88
2016-07-11T12:15:46.875Z,1003.78
2016-07-11T12:16:46.907Z,1003.79
2016-07-11T12:17:46.937Z,1003.79
2016-07-11T12:18:46.972Z,1003.76
2016-07-11T12:19:47.002Z,1003.82
2016-07-11T12:20:47.035Z,1003.82
2016-07-11T12:21:47.146Z,1003.8
2016-07-11T12:22:47.100Z,1003.76
2016-07-11T12:23:47.135Z,1003.81
2016-07-11T12:24:47.167Z,1003.89
2016-07-11T12:25:47.199Z,1003.94
2016-07-11T12:26:47.233Z,1003.85
2016-07-11T12:27:47.264Z,1003.89
2016-07-11T12:28:47.297Z,1003.95
2016-07-11T12:30:47.364Z,1003.95
2016-07-11T12:31:47.396Z,1003.97
2016-07-11T12:32:47.429Z,1003.89
2016-07-11T12:33:47.461Z,1003.84
2016-07-11T12:34:47.493Z,1003.84
2016-07-11T12:35:47.526Z,1003.81
2016-07-11T12:36:47.557Z,1003.89
2016-07-11T12:37:47.591Z,1003.81
2016-07-11T12:38:47.625Z,1003.83
2016-07-11T12:39:47.656Z,1003.77
2016-07-11T12:40:47.687Z,1003.74
2016-07-11T12:41:47.724Z,1003.72
2016-07-11T12:42:47.753Z,1003.72
2016-07-11T12:43:47.787Z,1003.7
2016-07-11T12:44:47.820Z,1003.7
2016-07-11T12:46:47.886Z,1003.59
2016-07-11T12:47:47.915Z,1003.6
2016-07-11T12:48:47.951Z,1003.59